sensor_id;sensor_type;location;lat;lon;timestamp;temperature;humidity
47354;DHT22;50657;48.830;2.282;2022-08-19T00:01:19;28.20;45.60
47354;DHT22;50657;48.830;2.282;2022-08-19T00:03:46;28.20;45.70
47354;DHT22;50657;48.830;2.282;2022-08-19T00:06:14;28.20;45.70
47354;DHT22;50657;48.830;2.282;2022-08-19T00:08:41;28.20;45.70
47354;DHT22;50657;48.830;2.282;2022-08-19T00:11:10;28.10;45.60
47354;DHT22;50657;48.830;2.282;2022-08-19T00:13:38;28.10;45.60
47354;DHT22;50657;48.830;2.282;2022-08-19T00:16:05;28.10;45.70
47354;DHT22;50657;48.830;2.282;2022-08-19T00:18:33;28.10;45.70
47354;DHT22;50657;48.830;2.282;2022-08-19T00:21:01;28.00;45.70
47354;DHT22;50657;48.830;2.282;2022-08-19T00:23:29;28.00;45.80
47354;DHT22;50657;48.830;2.282;2022-08-19T00:25:55;28.00;45.80
47354;DHT22;50657;48.830;2.282;2022-08-19T00:28:24;28.00;45.80
47354;DHT22;50657;48.830;2.282;2022-08-19T00:30:51;27.90;45.80
47354;DHT22;50657;48.830;2.282;2022-08-19T00:33:19;27.90;45.80
47354;DHT22;50657;48.830;2.282;2022-08-19T00:35:46;27.90;45.90
47354;DHT22;50657;48.830;2.282;2022-08-19T00:38:13;27.90;45.90
47354;DHT22;50657;48.830;2.282;2022-08-19T00:40:42;27.80;45.90
47354;DHT22;50657;48.830;2.282;2022-08-19T00:43:12;27.80;46.50
47354;DHT22;50657;48.830;2.282;2022-08-19T00:45:41;27.80;45.90
47354;DHT22;50657;48.830;2.282;2022-08-19T00:48:09;27.80;46.00
47354;DHT22;50657;48.830;2.282;2022-08-19T00:50:39;27.80;46.00
47354;DHT22;50657;48.830;2.282;2022-08-19T00:53:09;27.80;46.00
47354;DHT22;50657;48.830;2.282;2022-08-19T00:55:37;27.70;46.00
47354;DHT22;50657;48.830;2.282;2022-08-19T00:58:07;27.70;46.00
47354;DHT22;50657;48.830;2.282;2022-08-19T01:00:35;27.70;46.00
47354;DHT22;50657;48.830;2.282;2022-08-19T01:03:06;27.70;46.00
47354;DHT22;50657;48.830;2.282;2022-08-19T01:05:35;27.60;46.00
47354;DHT22;50657;48.830;2.282;2022-08-19T01:08:05;27.60;46.00
47354;DHT22;50657;48.830;2.282;2022-08-19T01:10:35;27.60;46.00
47354;DHT22;50657;48.830;2.282;2022-08-19T01:13:03;27.60;46.10
47354;DHT22;50657;48.830;2.282;2022-08-19T01:15:33;27.50;46.00
47354;DHT22;50657;48.830;2.282;2022-08-19T01:18:06;27.50;46.00
47354;DHT22;50657;48.830;2.282;2022-08-19T01:20:34;27.50;46.70
47354;DHT22;50657;48.830;2.282;2022-08-19T01:23:03;27.50;46.10
47354;DHT22;50657;48.830;2.282;2022-08-19T01:25:33;27.50;46.10
47354;DHT22;50657;48.830;2.282;2022-08-19T01:28:01;27.40;46.00
47354;DHT22;50657;48.830;2.282;2022-08-19T01:30:33;27.40;46.00
47354;DHT22;50657;48.830;2.282;2022-08-19T01:33:01;27.50;46.20
47354;DHT22;50657;48.830;2.282;2022-08-19T01:35:31;27.40;46.10
47354;DHT22;50657;48.830;2.282;2022-08-19T01:38:00;27.40;46.20
47354;DHT22;50657;48.830;2.282;2022-08-19T01:40:31;27.40;46.20
47354;DHT22;50657;48.830;2.282;2022-08-19T01:42:59;27.40;46.20
47354;DHT22;50657;48.830;2.282;2022-08-19T01:45:28;27.30;46.20
47354;DHT22;50657;48.830;2.282;2022-08-19T01:47:55;27.30;46.20
47354;DHT22;50657;48.830;2.282;2022-08-19T01:50:23;27.30;46.30
47354;DHT22;50657;48.830;2.282;2022-08-19T01:52:50;27.30;46.30
47354;DHT22;50657;48.830;2.282;2022-08-19T01:55:19;27.20;46.20
47354;DHT22;50657;48.830;2.282;2022-08-19T01:57:51;27.30;46.40
47354;DHT22;50657;48.830;2.282;2022-08-19T02:00:23;27.30;46.40
47354;DHT22;50657;48.830;2.282;2022-08-19T02:02:50;27.20;46.30
47354;DHT22;50657;48.830;2.282;2022-08-19T02:05:18;27.20;46.40
47354;DHT22;50657;48.830;2.282;2022-08-19T02:07:47;27.20;46.40
47354;DHT22;50657;48.830;2.282;2022-08-19T02:10:21;27.20;46.50
47354;DHT22;50657;48.830;2.282;2022-08-19T02:12:50;27.20;46.50
47354;DHT22;50657;48.830;2.282;2022-08-19T02:15:18;27.10;46.50
47354;DHT22;50657;48.830;2.282;2022-08-19T02:17:46;27.10;46.60
47354;DHT22;50657;48.830;2.282;2022-08-19T02:20:14;27.10;46.60
47354;DHT22;50657;48.830;2.282;2022-08-19T02:22:41;27.00;46.60
47354;DHT22;50657;48.830;2.282;2022-08-19T02:25:09;27.00;46.70
47354;DHT22;50657;48.830;2.282;2022-08-19T02:27:37;27.00;46.80
47354;DHT22;50657;48.830;2.282;2022-08-19T02:30:08;27.00;46.90
47354;DHT22;50657;48.830;2.282;2022-08-19T02:32:35;26.90;47.00
47354;DHT22;50657;48.830;2.282;2022-08-19T02:35:03;26.90;47.10
47354;DHT22;50657;48.830;2.282;2022-08-19T02:37:30;26.90;47.20
47354;DHT22;50657;48.830;2.282;2022-08-19T02:40:14;26.80;47.20
47354;DHT22;50657;48.830;2.282;2022-08-19T02:42:43;26.80;47.40
47354;DHT22;50657;48.830;2.282;2022-08-19T02:45:13;26.70;47.50
47354;DHT22;50657;48.830;2.282;2022-08-19T02:47:41;26.70;47.60
47354;DHT22;50657;48.830;2.282;2022-08-19T02:50:08;26.70;47.70
47354;DHT22;50657;48.830;2.282;2022-08-19T02:52:36;26.70;47.80
47354;DHT22;50657;48.830;2.282;2022-08-19T02:55:04;26.70;47.90
47354;DHT22;50657;48.830;2.282;2022-08-19T02:57:31;26.60;47.90
47354;DHT22;50657;48.830;2.282;2022-08-19T03:00:00;26.70;48.20
47354;DHT22;50657;48.830;2.282;2022-08-19T03:02:29;26.60;48.20
47354;DHT22;50657;48.830;2.282;2022-08-19T03:04:56;26.60;48.30
47354;DHT22;50657;48.830;2.282;2022-08-19T03:07:23;26.60;48.40
47354;DHT22;50657;48.830;2.282;2022-08-19T03:09:50;26.50;48.50
47354;DHT22;50657;48.830;2.282;2022-08-19T03:12:17;26.60;48.60
47354;DHT22;50657;48.830;2.282;2022-08-19T03:14:44;26.50;48.70
47354;DHT22;50657;48.830;2.282;2022-08-19T03:17:12;26.50;48.80
47354;DHT22;50657;48.830;2.282;2022-08-19T03:19:40;26.50;48.80
47354;DHT22;50657;48.830;2.282;2022-08-19T03:22:08;26.50;48.90
47354;DHT22;50657;48.830;2.282;2022-08-19T03:24:35;26.50;49.00
47354;DHT22;50657;48.830;2.282;2022-08-19T03:27:03;26.50;49.00
47354;DHT22;50657;48.830;2.282;2022-08-19T03:29:31;26.50;49.00
47354;DHT22;50657;48.830;2.282;2022-08-19T03:32:00;26.50;49.10
47354;DHT22;50657;48.830;2.282;2022-08-19T03:34:29;26.50;49.10
47354;DHT22;50657;48.830;2.282;2022-08-19T03:37:04;26.40;49.10
47354;DHT22;50657;48.830;2.282;2022-08-19T03:39:31;26.40;49.10
47354;DHT22;50657;48.830;2.282;2022-08-19T03:41:58;26.40;49.10
47354;DHT22;50657;48.830;2.282;2022-08-19T03:44:26;26.40;49.00
47354;DHT22;50657;48.830;2.282;2022-08-19T03:46:54;26.40;49.10
47354;DHT22;50657;48.830;2.282;2022-08-19T03:49:22;26.40;49.10
47354;DHT22;50657;48.830;2.282;2022-08-19T03:51:50;26.40;49.10
47354;DHT22;50657;48.830;2.282;2022-08-19T03:54:21;26.40;49.10
47354;DHT22;50657;48.830;2.282;2022-08-19T03:56:51;26.40;49.20
47354;DHT22;50657;48.830;2.282;2022-08-19T03:59:21;26.40;49.20
47354;DHT22;50657;48.830;2.282;2022-08-19T04:01:51;26.40;49.20
47354;DHT22;50657;48.830;2.282;2022-08-19T04:04:19;26.40;49.20
47354;DHT22;50657;48.830;2.282;2022-08-19T04:06:47;26.30;49.20
47354;DHT22;50657;48.830;2.282;2022-08-19T04:09:15;26.40;49.30
47354;DHT22;50657;48.830;2.282;2022-08-19T04:11:46;26.30;49.20
47354;DHT22;50657;48.830;2.282;2022-08-19T04:14:16;26.30;49.20
47354;DHT22;50657;48.830;2.282;2022-08-19T04:16:44;26.30;49.10
47354;DHT22;50657;48.830;2.282;2022-08-19T04:19:12;26.30;49.10
47354;DHT22;50657;48.830;2.282;2022-08-19T04:21:40;26.30;49.10
47354;DHT22;50657;48.830;2.282;2022-08-19T04:24:09;26.30;49.10
47354;DHT22;50657;48.830;2.282;2022-08-19T04:26:36;26.30;49.00
47354;DHT22;50657;48.830;2.282;2022-08-19T04:29:09;26.30;49.10
47354;DHT22;50657;48.830;2.282;2022-08-19T04:31:36;26.30;49.00
47354;DHT22;50657;48.830;2.282;2022-08-19T04:34:06;26.30;49.00
47354;DHT22;50657;48.830;2.282;2022-08-19T04:36:35;26.30;49.00
47354;DHT22;50657;48.830;2.282;2022-08-19T04:39:06;26.30;49.00
47354;DHT22;50657;48.830;2.282;2022-08-19T04:41:34;26.30;49.00
47354;DHT22;50657;48.830;2.282;2022-08-19T04:44:20;26.30;49.00
47354;DHT22;50657;48.830;2.282;2022-08-19T04:46:49;26.30;49.10
47354;DHT22;50657;48.830;2.282;2022-08-19T04:49:17;26.30;49.10
47354;DHT22;50657;48.830;2.282;2022-08-19T04:51:46;26.30;49.10
47354;DHT22;50657;48.830;2.282;2022-08-19T04:54:15;26.20;49.10
47354;DHT22;50657;48.830;2.282;2022-08-19T04:56:43;26.20;49.20
47354;DHT22;50657;48.830;2.282;2022-08-19T04:59:10;26.30;49.20
47354;DHT22;50657;48.830;2.282;2022-08-19T05:01:39;26.20;49.20
47354;DHT22;50657;48.830;2.282;2022-08-19T05:04:06;26.20;49.10
47354;DHT22;50657;48.830;2.282;2022-08-19T05:06:34;26.20;49.10
47354;DHT22;50657;48.830;2.282;2022-08-19T05:09:02;26.20;49.10
47354;DHT22;50657;48.830;2.282;2022-08-19T05:11:31;26.20;49.20
47354;DHT22;50657;48.830;2.282;2022-08-19T05:13:59;26.20;49.20
47354;DHT22;50657;48.830;2.282;2022-08-19T05:16:27;26.30;49.20
47354;DHT22;50657;48.830;2.282;2022-08-19T05:18:55;26.20;49.20
47354;DHT22;50657;48.830;2.282;2022-08-19T05:21:40;26.30;49.30
47354;DHT22;50657;48.830;2.282;2022-08-19T05:24:25;26.20;49.20
47354;DHT22;50657;48.830;2.282;2022-08-19T05:26:53;26.10;49.30
47354;DHT22;50657;48.830;2.282;2022-08-19T05:29:24;26.10;49.30
47354;DHT22;50657;48.830;2.282;2022-08-19T05:31:52;26.20;49.40
47354;DHT22;50657;48.830;2.282;2022-08-19T05:34:22;26.20;49.40
47354;DHT22;50657;48.830;2.282;2022-08-19T05:36:55;26.20;49.40
47354;DHT22;50657;48.830;2.282;2022-08-19T05:39:24;26.20;49.40
47354;DHT22;50657;48.830;2.282;2022-08-19T05:41:52;26.20;49.40
47354;DHT22;50657;48.830;2.282;2022-08-19T05:44:20;26.20;49.50
47354;DHT22;50657;48.830;2.282;2022-08-19T05:46:48;26.20;49.60
47354;DHT22;50657;48.830;2.282;2022-08-19T05:49:21;26.20;49.60
47354;DHT22;50657;48.830;2.282;2022-08-19T05:51:49;26.20;49.70
47354;DHT22;50657;48.830;2.282;2022-08-19T05:54:16;26.20;49.80
47354;DHT22;50657;48.830;2.282;2022-08-19T05:56:43;26.20;49.80
47354;DHT22;50657;48.830;2.282;2022-08-19T05:59:14;26.20;49.80
47354;DHT22;50657;48.830;2.282;2022-08-19T06:01:43;26.20;49.80
47354;DHT22;50657;48.830;2.282;2022-08-19T06:04:12;26.20;49.90
47354;DHT22;50657;48.830;2.282;2022-08-19T06:06:41;26.20;50.00
47354;DHT22;50657;48.830;2.282;2022-08-19T06:09:08;26.20;50.10
47354;DHT22;50657;48.830;2.282;2022-08-19T06:11:38;26.20;50.20
47354;DHT22;50657;48.830;2.282;2022-08-19T06:14:09;26.20;50.30
47354;DHT22;50657;48.830;2.282;2022-08-19T06:16:38;26.20;50.40
47354;DHT22;50657;48.830;2.282;2022-08-19T06:19:07;26.20;50.50
47354;DHT22;50657;48.830;2.282;2022-08-19T06:21:36;26.20;50.70
47354;DHT22;50657;48.830;2.282;2022-08-19T06:24:07;26.20;50.80
47354;DHT22;50657;48.830;2.282;2022-08-19T06:26:35;26.20;50.90
47354;DHT22;50657;48.830;2.282;2022-08-19T06:29:04;26.20;51.00
47354;DHT22;50657;48.830;2.282;2022-08-19T06:31:33;26.20;51.00
47354;DHT22;50657;48.830;2.282;2022-08-19T06:34:01;26.20;51.10
47354;DHT22;50657;48.830;2.282;2022-08-19T06:36:31;26.20;51.10
47354;DHT22;50657;48.830;2.282;2022-08-19T06:39:00;26.20;51.30
47354;DHT22;50657;48.830;2.282;2022-08-19T06:41:30;26.20;51.30
47354;DHT22;50657;48.830;2.282;2022-08-19T06:43:57;26.30;51.40
47354;DHT22;50657;48.830;2.282;2022-08-19T06:46:24;26.40;51.40
47354;DHT22;50657;48.830;2.282;2022-08-19T06:48:52;26.40;51.30
47354;DHT22;50657;48.830;2.282;2022-08-19T06:51:21;26.50;51.20
47354;DHT22;50657;48.830;2.282;2022-08-19T06:53:51;26.50;51.10
47354;DHT22;50657;48.830;2.282;2022-08-19T06:56:20;26.50;51.00
47354;DHT22;50657;48.830;2.282;2022-08-19T06:58:50;26.50;50.90
47354;DHT22;50657;48.830;2.282;2022-08-19T07:01:19;26.60;50.80
47354;DHT22;50657;48.830;2.282;2022-08-19T07:03:46;26.70;50.80
47354;DHT22;50657;48.830;2.282;2022-08-19T07:06:16;26.70;50.70
47354;DHT22;50657;48.830;2.282;2022-08-19T07:08:46;26.70;50.60
47354;DHT22;50657;48.830;2.282;2022-08-19T07:11:16;26.80;50.60
47354;DHT22;50657;48.830;2.282;2022-08-19T07:13:44;26.80;50.50
47354;DHT22;50657;48.830;2.282;2022-08-19T07:16:17;26.90;50.40
47354;DHT22;50657;48.830;2.282;2022-08-19T07:18:46;26.90;50.40
47354;DHT22;50657;48.830;2.282;2022-08-19T07:21:16;26.90;50.30
47354;DHT22;50657;48.830;2.282;2022-08-19T07:23:44;27.00;50.30
47354;DHT22;50657;48.830;2.282;2022-08-19T07:26:14;27.00;50.20
47354;DHT22;50657;48.830;2.282;2022-08-19T07:28:41;27.00;50.10
47354;DHT22;50657;48.830;2.282;2022-08-19T07:31:12;27.00;50.10
47354;DHT22;50657;48.830;2.282;2022-08-19T07:33:41;27.10;50.10
47354;DHT22;50657;48.830;2.282;2022-08-19T07:36:10;27.10;50.00
47354;DHT22;50657;48.830;2.282;2022-08-19T07:38:40;27.10;50.00
47354;DHT22;50657;48.830;2.282;2022-08-19T07:41:09;27.20;50.10
47354;DHT22;50657;48.830;2.282;2022-08-19T07:43:37;27.20;50.00
47354;DHT22;50657;48.830;2.282;2022-08-19T07:46:05;27.20;50.00
47354;DHT22;50657;48.830;2.282;2022-08-19T07:48:33;27.30;50.00
47354;DHT22;50657;48.830;2.282;2022-08-19T07:51:04;27.30;49.90
47354;DHT22;50657;48.830;2.282;2022-08-19T07:53:33;27.30;49.90
47354;DHT22;50657;48.830;2.282;2022-08-19T07:56:01;27.40;49.80
47354;DHT22;50657;48.830;2.282;2022-08-19T07:58:31;27.40;49.70
47354;DHT22;50657;48.830;2.282;2022-08-19T08:00:59;27.40;49.60
47354;DHT22;50657;48.830;2.282;2022-08-19T08:03:28;27.40;49.60
47354;DHT22;50657;48.830;2.282;2022-08-19T08:06:11;27.50;49.60
47354;DHT22;50657;48.830;2.282;2022-08-19T08:08:52;27.50;49.50
47354;DHT22;50657;48.830;2.282;2022-08-19T08:11:38;27.50;49.50
47354;DHT22;50657;48.830;2.282;2022-08-19T08:14:05;27.50;49.30
47354;DHT22;50657;48.830;2.282;2022-08-19T08:16:34;27.50;49.30
47354;DHT22;50657;48.830;2.282;2022-08-19T08:19:03;27.60;49.30
47354;DHT22;50657;48.830;2.282;2022-08-19T08:21:33;27.60;49.30
47354;DHT22;50657;48.830;2.282;2022-08-19T08:24:00;27.60;49.30
47354;DHT22;50657;48.830;2.282;2022-08-19T08:26:27;27.60;49.20
47354;DHT22;50657;48.830;2.282;2022-08-19T08:28:54;27.70;49.20
47354;DHT22;50657;48.830;2.282;2022-08-19T08:31:21;27.70;49.20
47354;DHT22;50657;48.830;2.282;2022-08-19T08:33:49;27.70;49.10
47354;DHT22;50657;48.830;2.282;2022-08-19T08:36:16;27.70;49.70
47354;DHT22;50657;48.830;2.282;2022-08-19T08:38:45;27.70;49.00
47354;DHT22;50657;48.830;2.282;2022-08-19T08:41:19;27.80;49.00
47354;DHT22;50657;48.830;2.282;2022-08-19T08:43:50;27.80;49.00
47354;DHT22;50657;48.830;2.282;2022-08-19T08:46:22;27.80;49.00
47354;DHT22;50657;48.830;2.282;2022-08-19T08:48:57;27.80;49.00
47354;DHT22;50657;48.830;2.282;2022-08-19T08:51:36;27.80;49.00
47354;DHT22;50657;48.830;2.282;2022-08-19T08:54:08;27.80;49.00
47354;DHT22;50657;48.830;2.282;2022-08-19T08:56:37;27.80;49.00
47354;DHT22;50657;48.830;2.282;2022-08-19T08:59:09;27.80;48.90
47354;DHT22;50657;48.830;2.282;2022-08-19T09:01:37;27.80;48.90
47354;DHT22;50657;48.830;2.282;2022-08-19T09:04:05;27.90;48.90
47354;DHT22;50657;48.830;2.282;2022-08-19T09:06:38;27.90;48.80
47354;DHT22;50657;48.830;2.282;2022-08-19T09:09:14;28.00;48.80
47354;DHT22;50657;48.830;2.282;2022-08-19T09:11:56;28.00;48.60
47354;DHT22;50657;48.830;2.282;2022-08-19T09:14:34;28.10;48.60
47354;DHT22;50657;48.830;2.282;2022-08-19T09:17:03;28.10;48.50
47354;DHT22;50657;48.830;2.282;2022-08-19T09:19:34;28.10;48.50
47354;DHT22;50657;48.830;2.282;2022-08-19T09:22:01;28.10;48.30
47354;DHT22;50657;48.830;2.282;2022-08-19T09:24:30;28.20;48.20
47354;DHT22;50657;48.830;2.282;2022-08-19T09:26:56;28.20;48.10
47354;DHT22;50657;48.830;2.282;2022-08-19T09:29:24;28.20;48.00
47354;DHT22;50657;48.830;2.282;2022-08-19T09:31:51;28.30;48.10
47354;DHT22;50657;48.830;2.282;2022-08-19T09:34:19;28.30;48.00
47354;DHT22;50657;48.830;2.282;2022-08-19T09:36:46;28.30;48.00
47354;DHT22;50657;48.830;2.282;2022-08-19T09:39:15;28.40;47.90
47354;DHT22;50657;48.830;2.282;2022-08-19T09:41:43;28.40;48.00
47354;DHT22;50657;48.830;2.282;2022-08-19T09:44:10;28.50;48.20
47354;DHT22;50657;48.830;2.282;2022-08-19T09:46:38;28.50;48.30
47354;DHT22;50657;48.830;2.282;2022-08-19T09:49:05;28.60;48.20
47354;DHT22;50657;48.830;2.282;2022-08-19T09:51:33;28.60;48.20
47354;DHT22;50657;48.830;2.282;2022-08-19T09:54:02;28.70;48.20
47354;DHT22;50657;48.830;2.282;2022-08-19T09:56:30;28.80;48.10
47354;DHT22;50657;48.830;2.282;2022-08-19T09:59:00;28.90;47.90
47354;DHT22;50657;48.830;2.282;2022-08-19T10:01:30;29.00;47.80
47354;DHT22;50657;48.830;2.282;2022-08-19T10:03:58;29.00;47.60
47354;DHT22;50657;48.830;2.282;2022-08-19T10:06:27;29.10;47.50
47354;DHT22;50657;48.830;2.282;2022-08-19T10:08:57;29.20;47.30
47354;DHT22;50657;48.830;2.282;2022-08-19T10:11:24;29.30;47.20
47354;DHT22;50657;48.830;2.282;2022-08-19T10:13:52;29.40;47.10
47354;DHT22;50657;48.830;2.282;2022-08-19T10:16:22;29.40;46.90
47354;DHT22;50657;48.830;2.282;2022-08-19T10:18:51;29.50;46.70
47354;DHT22;50657;48.830;2.282;2022-08-19T10:21:21;29.50;46.60
47354;DHT22;50657;48.830;2.282;2022-08-19T10:23:54;29.70;46.50
47354;DHT22;50657;48.830;2.282;2022-08-19T10:26:23;29.70;46.30
47354;DHT22;50657;48.830;2.282;2022-08-19T10:28:51;29.80;46.20
47354;DHT22;50657;48.830;2.282;2022-08-19T10:31:22;29.80;46.10
47354;DHT22;50657;48.830;2.282;2022-08-19T10:33:50;29.90;46.00
47354;DHT22;50657;48.830;2.282;2022-08-19T10:36:24;30.00;45.90
47354;DHT22;50657;48.830;2.282;2022-08-19T10:38:53;30.00;45.80
47354;DHT22;50657;48.830;2.282;2022-08-19T10:41:24;30.00;45.70
47354;DHT22;50657;48.830;2.282;2022-08-19T10:43:52;30.00;45.60
47354;DHT22;50657;48.830;2.282;2022-08-19T10:46:22;30.10;45.60
47354;DHT22;50657;48.830;2.282;2022-08-19T10:48:51;30.20;45.50
47354;DHT22;50657;48.830;2.282;2022-08-19T10:51:18;30.20;45.50
47354;DHT22;50657;48.830;2.282;2022-08-19T10:54:03;30.20;45.40
47354;DHT22;50657;48.830;2.282;2022-08-19T10:56:32;30.20;45.30
47354;DHT22;50657;48.830;2.282;2022-08-19T10:59:18;30.30;45.50
47354;DHT22;50657;48.830;2.282;2022-08-19T11:01:47;30.30;45.30
47354;DHT22;50657;48.830;2.282;2022-08-19T11:04:16;30.30;45.20
47354;DHT22;50657;48.830;2.282;2022-08-19T11:06:44;30.30;45.10
47354;DHT22;50657;48.830;2.282;2022-08-19T11:09:14;30.30;45.10
47354;DHT22;50657;48.830;2.282;2022-08-19T11:11:42;30.30;45.00
47354;DHT22;50657;48.830;2.282;2022-08-19T11:14:11;30.40;45.00
47354;DHT22;50657;48.830;2.282;2022-08-19T11:16:39;30.40;45.00
47354;DHT22;50657;48.830;2.282;2022-08-19T11:19:10;30.50;45.00
47354;DHT22;50657;48.830;2.282;2022-08-19T11:21:39;30.50;45.00
47354;DHT22;50657;48.830;2.282;2022-08-19T11:24:09;30.50;44.90
47354;DHT22;50657;48.830;2.282;2022-08-19T11:26:37;30.50;44.80
47354;DHT22;50657;48.830;2.282;2022-08-19T11:29:06;30.50;44.80
47354;DHT22;50657;48.830;2.282;2022-08-19T11:31:38;30.50;44.80
47354;DHT22;50657;48.830;2.282;2022-08-19T11:34:09;30.60;44.80
47354;DHT22;50657;48.830;2.282;2022-08-19T11:36:40;30.60;44.70
47354;DHT22;50657;48.830;2.282;2022-08-19T11:39:09;30.60;44.70
47354;DHT22;50657;48.830;2.282;2022-08-19T11:41:36;30.60;44.70
47354;DHT22;50657;48.830;2.282;2022-08-19T11:44:04;30.60;44.60
47354;DHT22;50657;48.830;2.282;2022-08-19T11:46:34;30.60;44.60
47354;DHT22;50657;48.830;2.282;2022-08-19T11:49:03;30.60;44.50
47354;DHT22;50657;48.830;2.282;2022-08-19T11:51:32;30.60;44.50
47354;DHT22;50657;48.830;2.282;2022-08-19T11:53:59;30.70;44.50
47354;DHT22;50657;48.830;2.282;2022-08-19T11:56:27;30.70;44.50
47354;DHT22;50657;48.830;2.282;2022-08-19T11:58:55;30.70;44.40
47354;DHT22;50657;48.830;2.282;2022-08-19T12:01:24;30.70;44.40
47354;DHT22;50657;48.830;2.282;2022-08-19T12:03:54;30.80;44.50
47354;DHT22;50657;48.830;2.282;2022-08-19T12:06:23;30.70;44.40
47354;DHT22;50657;48.830;2.282;2022-08-19T12:08:56;30.80;44.40
47354;DHT22;50657;48.830;2.282;2022-08-19T12:11:23;30.80;44.40
47354;DHT22;50657;48.830;2.282;2022-08-19T12:13:51;30.80;44.40
47354;DHT22;50657;48.830;2.282;2022-08-19T12:16:20;30.80;44.40
47354;DHT22;50657;48.830;2.282;2022-08-19T12:18:49;30.80;45.00
47354;DHT22;50657;48.830;2.282;2022-08-19T12:21:19;30.80;44.40
47354;DHT22;50657;48.830;2.282;2022-08-19T12:23:48;30.80;44.40
47354;DHT22;50657;48.830;2.282;2022-08-19T12:26:17;30.80;44.40
47354;DHT22;50657;48.830;2.282;2022-08-19T12:28:44;30.80;44.40
47354;DHT22;50657;48.830;2.282;2022-08-19T12:31:14;30.80;44.40
47354;DHT22;50657;48.830;2.282;2022-08-19T12:33:42;30.80;44.40
47354;DHT22;50657;48.830;2.282;2022-08-19T12:36:11;30.80;44.40
47354;DHT22;50657;48.830;2.282;2022-08-19T12:38:39;30.80;44.40
47354;DHT22;50657;48.830;2.282;2022-08-19T12:41:10;30.80;44.40
47354;DHT22;50657;48.830;2.282;2022-08-19T12:43:39;30.80;44.40
47354;DHT22;50657;48.830;2.282;2022-08-19T12:46:08;30.80;44.30
47354;DHT22;50657;48.830;2.282;2022-08-19T12:48:35;30.90;44.40
47354;DHT22;50657;48.830;2.282;2022-08-19T12:51:07;30.80;44.50
47354;DHT22;50657;48.830;2.282;2022-08-19T12:53:35;30.80;44.50
47354;DHT22;50657;48.830;2.282;2022-08-19T12:56:02;30.80;44.60
47354;DHT22;50657;48.830;2.282;2022-08-19T12:58:30;30.80;44.70
47354;DHT22;50657;48.830;2.282;2022-08-19T13:01:06;30.80;44.60
47354;DHT22;50657;48.830;2.282;2022-08-19T13:03:33;30.70;44.50
47354;DHT22;50657;48.830;2.282;2022-08-19T13:06:00;30.70;44.60
47354;DHT22;50657;48.830;2.282;2022-08-19T13:08:27;30.70;44.70
47354;DHT22;50657;48.830;2.282;2022-08-19T13:10:54;30.60;44.70
47354;DHT22;50657;48.830;2.282;2022-08-19T13:13:21;30.60;44.70
47354;DHT22;50657;48.830;2.282;2022-08-19T13:15:51;30.50;44.80
47354;DHT22;50657;48.830;2.282;2022-08-19T13:18:20;30.60;45.00
47354;DHT22;50657;48.830;2.282;2022-08-19T13:20:47;30.50;44.90
47354;DHT22;50657;48.830;2.282;2022-08-19T13:23:14;30.50;45.60
47354;DHT22;50657;48.830;2.282;2022-08-19T13:25:41;30.50;45.00
47354;DHT22;50657;48.830;2.282;2022-08-19T13:28:08;30.40;45.60
47354;DHT22;50657;48.830;2.282;2022-08-19T13:30:35;30.40;45.00
47354;DHT22;50657;48.830;2.282;2022-08-19T13:33:21;30.40;45.10
47354;DHT22;50657;48.830;2.282;2022-08-19T13:35:50;30.40;45.20
47354;DHT22;50657;48.830;2.282;2022-08-19T13:38:22;30.40;45.10
47354;DHT22;50657;48.830;2.282;2022-08-19T13:40:52;30.50;45.20
47354;DHT22;50657;48.830;2.282;2022-08-19T13:43:20;30.50;44.90
47354;DHT22;50657;48.830;2.282;2022-08-19T13:45:47;30.60;45.00
47354;DHT22;50657;48.830;2.282;2022-08-19T13:48:15;30.70;44.80
47354;DHT22;50657;48.830;2.282;2022-08-19T13:50:45;30.80;44.70
47354;DHT22;50657;48.830;2.282;2022-08-19T13:53:14;31.00;44.60
47354;DHT22;50657;48.830;2.282;2022-08-19T13:55:42;31.10;44.40
47354;DHT22;50657;48.830;2.282;2022-08-19T13:58:10;31.30;44.40
47354;DHT22;50657;48.830;2.282;2022-08-19T14:00:41;31.40;43.70
47354;DHT22;50657;48.830;2.282;2022-08-19T14:03:09;31.60;43.40
47354;DHT22;50657;48.830;2.282;2022-08-19T14:05:36;31.70;43.20
47354;DHT22;50657;48.830;2.282;2022-08-19T14:08:05;31.80;42.90
47354;DHT22;50657;48.830;2.282;2022-08-19T14:10:32;32.00;42.60
47354;DHT22;50657;48.830;2.282;2022-08-19T14:13:01;32.10;42.30
47354;DHT22;50657;48.830;2.282;2022-08-19T14:15:29;32.30;42.00
47354;DHT22;50657;48.830;2.282;2022-08-19T14:17:56;32.50;41.70
47354;DHT22;50657;48.830;2.282;2022-08-19T14:20:24;32.60;41.40
47354;DHT22;50657;48.830;2.282;2022-08-19T14:22:51;32.80;41.10
47354;DHT22;50657;48.830;2.282;2022-08-19T14:25:23;32.90;40.70
47354;DHT22;50657;48.830;2.282;2022-08-19T14:27:51;33.10;40.60
47354;DHT22;50657;48.830;2.282;2022-08-19T14:30:21;33.20;40.20
47354;DHT22;50657;48.830;2.282;2022-08-19T14:32:48;33.30;40.40
47354;DHT22;50657;48.830;2.282;2022-08-19T14:35:15;33.50;39.70
47354;DHT22;50657;48.830;2.282;2022-08-19T14:37:44;33.50;39.70
47354;DHT22;50657;48.830;2.282;2022-08-19T14:40:12;33.60;39.70
47354;DHT22;50657;48.830;2.282;2022-08-19T14:42:41;33.70;39.40
47354;DHT22;50657;48.830;2.282;2022-08-19T14:45:10;33.80;39.20
47354;DHT22;50657;48.830;2.282;2022-08-19T14:47:38;33.80;38.90
47354;DHT22;50657;48.830;2.282;2022-08-19T14:50:07;33.90;38.80
47354;DHT22;50657;48.830;2.282;2022-08-19T14:52:34;33.90;38.80
47354;DHT22;50657;48.830;2.282;2022-08-19T14:55:02;33.90;38.50
47354;DHT22;50657;48.830;2.282;2022-08-19T14:57:29;34.00;38.50
47354;DHT22;50657;48.830;2.282;2022-08-19T14:59:58;34.00;38.30
47354;DHT22;50657;48.830;2.282;2022-08-19T15:02:26;34.10;38.20
47354;DHT22;50657;48.830;2.282;2022-08-19T15:04:53;34.10;38.20
47354;DHT22;50657;48.830;2.282;2022-08-19T15:07:21;34.20;38.10
47354;DHT22;50657;48.830;2.282;2022-08-19T15:09:49;34.20;38.00
47354;DHT22;50657;48.830;2.282;2022-08-19T15:12:17;34.30;37.90
47354;DHT22;50657;48.830;2.282;2022-08-19T15:14:44;34.30;38.00
47354;DHT22;50657;48.830;2.282;2022-08-19T15:17:17;34.30;37.90
47354;DHT22;50657;48.830;2.282;2022-08-19T15:19:45;34.30;37.70
47354;DHT22;50657;48.830;2.282;2022-08-19T15:22:12;34.30;37.70
47354;DHT22;50657;48.830;2.282;2022-08-19T15:24:40;34.40;37.70
47354;DHT22;50657;48.830;2.282;2022-08-19T15:27:11;34.40;37.90
47354;DHT22;50657;48.830;2.282;2022-08-19T15:29:38;34.30;37.80
47354;DHT22;50657;48.830;2.282;2022-08-19T15:32:06;34.40;37.90
47354;DHT22;50657;48.830;2.282;2022-08-19T15:34:35;34.40;37.80
47354;DHT22;50657;48.830;2.282;2022-08-19T15:37:02;34.40;37.80
47354;DHT22;50657;48.830;2.282;2022-08-19T15:39:30;34.50;38.00
47354;DHT22;50657;48.830;2.282;2022-08-19T15:41:57;34.50;38.00